createdAt,value
2022-11-18T00:19:34.314Z,19.3
2022-11-18T00:39:34.274Z,19.3
2022-11-18T00:59:34.249Z,19.3
2022-11-18T01:19:34.238Z,19.2
2022-11-18T01:39:34.232Z,19.2
2022-11-18T01:59:34.224Z,19.2
2022-11-18T02:19:34.151Z,19.2
2022-11-18T02:39:34.126Z,19.1
2022-11-18T02:59:34.110Z,19.1
2022-11-18T03:19:34.097Z,19.1
2022-11-18T03:39:34.049Z,19.1
2022-11-18T03:59:34.018Z,19.1
2022-11-18T04:19:34.150Z,19.1
2022-11-18T04:39:33.994Z,19.2
2022-11-18T04:59:33.979Z,19.3
2022-11-18T05:19:33.942Z,19.4
2022-11-18T05:39:33.971Z,19.5
2022-11-18T05:59:33.890Z,19.6
2022-11-18T06:19:33.879Z,19.6
2022-11-18T06:39:33.844Z,19.6
2022-11-18T06:59:33.834Z,19.7
2022-11-18T07:19:33.790Z,19.7
2022-11-18T07:39:33.775Z,19.7
2022-11-18T07:59:33.814Z,19.8
2022-11-18T08:19:33.789Z,19.8
2022-11-18T08:39:33.715Z,19.8
2022-11-18T08:59:33.689Z,19.8
2022-11-18T09:19:33.669Z,19.8
2022-11-18T09:39:33.788Z,19.8
2022-11-18T09:59:33.850Z,19.8
2022-11-18T10:19:33.744Z,19.8
2022-11-18T10:39:33.684Z,19.8
2022-11-18T10:59:33.685Z,19.8
2022-11-18T11:19:33.502Z,19.8
2022-11-18T11:39:33.526Z,19.8
2022-11-18T11:59:33.506Z,19.8
2022-11-18T12:19:33.698Z,19.8
2022-11-18T12:39:33.382Z,19.8
2022-11-18T12:59:33.404Z,19.8
2022-11-18T13:19:33.433Z,19.8
2022-11-18T13:39:33.341Z,19.8
2022-11-18T13:59:33.300Z,19.8
2022-11-18T14:19:33.281Z,19.8
2022-11-18T14:39:33.287Z,19.8
2022-11-18T14:59:33.481Z,19.9
2022-11-18T15:19:33.254Z,19.9
2022-11-18T15:39:33.251Z,19.9
2022-11-18T15:59:33.262Z,19.9
2022-11-18T16:19:33.150Z,19.9
2022-11-18T16:39:33.351Z,19.9
2022-11-18T16:59:33.064Z,19.9
2022-11-18T17:19:33.075Z,20.1
2022-11-18T17:39:33.009Z,20.0
2022-11-18T17:59:32.975Z,20.0
2022-11-18T18:19:32.975Z,20.0
2022-11-18T18:39:33.030Z,20.0
2022-11-18T18:59:32.911Z,20.1
2022-11-18T19:19:32.921Z,20.2
2022-11-18T19:39:33.028Z,20.1
2022-11-18T19:59:33.008Z,20.0
2022-11-18T20:19:33.025Z,19.9
2022-11-18T20:39:32.969Z,19.8
2022-11-18T20:59:32.903Z,19.9
2022-11-18T21:19:32.837Z,19.8
2022-11-18T21:39:32.895Z,19.8
2022-11-18T21:59:32.890Z,19.8
2022-11-18T22:19:32.807Z,19.8
2022-11-18T22:39:32.733Z,19.8
2022-11-18T22:59:32.623Z,19.8
2022-11-18T23:19:32.661Z,19.8
2022-11-18T23:39:32.715Z,19.8
2022-11-18T23:59:32.588Z,19.6
